Time;durP1;ratioP1;P1;durP2;ratioP2;P2;SDS_P1;SDS_P2;PMS_P1;PMS_P2;Temp;Humidity;BMP_temperature;BMP_pressure;BME280_temperature;BME280_humidity;BME280_pressure;Samples;Min_cycle;Max_cycle;Signal;HPM_P1;HPM_P2
2023/06/28 00:00:02;;;;;;;9.27;2.63;;;14.90;99.90;;;;;;5052709;28;20506;-52
2023/06/28 00:02:28;;;;;;;4.88;2.72;;;14.90;99.90;;;;;;5054129;28;20328;-52
2023/06/28 00:04:54;;;;;;;6.53;2.63;;;14.90;99.90;;;;;;5050174;28;20401;-52
2023/06/28 00:07:20;;;;;;;;;;;14.90;99.90;;;;;;5052586;28;20044;-55
2023/06/28 00:09:45;;;;;;;5.47;2.55;;;14.90;99.90;;;;;;5058665;28;19920;-52
2023/06/28 00:12:11;;;;;;;5.00;2.38;;;14.90;99.90;;;;;;5057000;28;20044;-57
2023/06/28 00:14:36;;;;;;;7.50;3.22;;;14.90;99.90;;;;;;5059431;28;20032;-55
2023/06/28 00:17:02;;;;;;;8.27;2.75;;;14.90;99.90;;;;;;5056145;28;20052;-52
2023/06/28 00:19:28;;;;;;;7.45;2.70;;;14.90;99.90;;;;;;5055263;28;20513;-51
2023/06/28 00:21:55;;;;;;;5.53;2.42;;;14.90;99.90;;;;;;5056953;28;20047;-55
2023/06/28 00:24:21;;;;;;;6.15;2.85;;;14.80;99.90;;;;;;5049147;28;20029;-52
2023/06/28 00:26:47;;;;;;;;;;;14.90;99.90;;;;;;5054589;28;20083;-54
2023/06/28 00:29:12;;;;;;;5.50;2.22;;;14.90;99.90;;;;;;5053053;28;19916;-54
2023/06/28 00:31:38;;;;;;;5.25;2.88;;;14.80;99.90;;;;;;5051825;28;20037;-52
2023/06/28 00:34:04;;;;;;;7.10;2.83;;;14.80;99.90;;;;;;5052229;28;20141;-52
2023/06/28 00:36:29;;;;;;;11.02;3.38;;;14.80;99.90;;;;;;5070318;28;20043;-55
2023/06/28 00:38:55;;;;;;;5.45;2.85;;;14.70;99.90;;;;;;5068424;28;20474;-51
2023/06/28 00:41:21;;;;;;;5.00;2.85;;;14.70;99.90;;;;;;5070039;28;20036;-52
2023/06/28 00:43:46;;;;;;;7.22;2.85;;;14.70;99.90;;;;;;5069507;28;20032;-51
2023/06/28 00:46:12;;;;;;;3.75;2.70;;;14.60;99.90;;;;;;5052515;28;20340;-53
2023/06/28 00:48:38;;;;;;;6.32;2.92;;;14.60;99.90;;;;;;5052454;28;20051;-52
2023/06/28 00:51:04;;;;;;;8.18;2.75;;;14.60;99.90;;;;;;5069097;28;20325;-52
2023/06/28 00:53:30;;;;;;;8.02;4.13;;;14.60;99.90;;;;;;5068866;28;20036;-57
2023/06/28 00:55:57;;;;;;;6.90;3.45;;;14.60;99.90;;;;;;5069819;28;20113;-52
2023/06/28 00:58:25;;;;;;;9.73;3.38;;;14.60;99.90;;;;;;5067737;28;20041;-52
2023/06/28 01:00:50;;;;;;;9.73;3.65;;;14.50;99.90;;;;;;5068076;28;20098;-57
2023/06/28 01:03:18;;;;;;;10.05;4.32;;;14.60;99.90;;;;;;5069226;28;20536;-55
2023/06/28 01:05:49;;;;;;;8.13;3.63;;;14.60;99.90;;;;;;5069338;28;20063;-52
2023/06/28 01:08:16;;;;;;;9.30;4.25;;;14.60;99.90;;;;;;5064274;28;20036;-56
2023/06/28 01:10:42;;;;;;;8.38;3.38;;;14.60;99.90;;;;;;5068390;28;20120;-51
2023/06/28 01:13:08;;;;;;;10.25;3.75;;;14.60;99.90;;;;;;5069092;28;20032;-54
2023/06/28 01:15:34;;;;;;;13.95;4.03;;;14.60;99.90;;;;;;5068255;28;20397;-52
2023/06/28 01:18:00;;;;;;;10.27;4.47;;;14.60;99.90;;;;;;5067634;28;20039;-52
2023/06/28 01:20:30;;;;;;;8.70;4.93;;;14.50;99.90;;;;;;5069717;28;20059;-54
2023/06/28 01:22:56;;;;;;;9.95;3.47;;;14.50;99.90;;;;;;5054741;28;20052;-55
2023/06/28 01:25:22;;;;;;;7.55;3.53;;;14.50;99.90;;;;;;5050826;28;20036;-55
2023/06/28 01:27:48;;;;;;;;;;;14.50;99.90;;;;;;5060849;28;20497;-55
2023/06/28 01:30:17;;;;;;;9.73;4.07;;;14.50;99.90;;;;;;5053383;28;19927;-52
2023/06/28 01:32:43;;;;;;;9.10;3.72;;;14.50;99.90;;;;;;5064974;28;20181;-54
2023/06/28 01:35:10;;;;;;;11.95;5.28;;;14.60;99.90;;;;;;5063223;28;20896;-52
2023/06/28 01:37:38;;;;;;;7.57;4.38;;;14.60;99.90;;;;;;5065895;28;20402;-54
2023/06/28 01:40:05;;;;;;;8.90;4.10;;;14.60;99.90;;;;;;5050687;28;20128;-53
2023/06/28 01:42:33;;;;;;;6.43;3.97;;;14.60;99.90;;;;;;5050184;28;20096;-51
2023/06/28 01:44:59;;;;;;;7.47;4.22;;;14.60;99.90;;;;;;5050343;28;20028;-54
2023/06/28 01:47:25;;;;;;;11.30;4.78;;;14.60;99.90;;;;;;5054908;28;20039;-54
2023/06/28 01:49:50;;;;;;;6.72;4.25;;;14.50;99.90;;;;;;5068666;28;20041;-54
2023/06/28 01:52:16;;;;;;;6.18;4.00;;;14.50;99.90;;;;;;5068535;28;20051;-54
2023/06/28 01:54:41;;;;;;;9.70;5.18;;;14.50;99.90;;;;;;5067821;28;20036;-54
2023/06/28 01:57:07;;;;;;;8.05;4.15;;;14.50;99.90;;;;;;5067054;28;20112;-54
2023/06/28 01:59:33;;;;;;;10.20;4.63;;;14.40;99.90;;;;;;5067903;28;20085;-52
2023/06/28 02:01:58;;;;;;;9.70;5.05;;;14.40;99.90;;;;;;5068353;28;20078;-52
2023/06/28 02:04:24;;;;;;;9.75;4.78;;;14.40;99.90;;;;;;5067800;28;20115;-55
2023/06/28 02:06:49;;;;;;;7.55;4.07;;;14.40;99.90;;;;;;5064389;28;20044;-55
2023/06/28 02:09:15;;;;;;;10.68;4.43;;;14.40;99.90;;;;;;5049689;28;20131;-52
2023/06/28 02:11:40;;;;;;;7.28;4.15;;;14.40;99.90;;;;;;5049812;28;20071;-52
2023/06/28 02:14:06;;;;;;;10.80;5.38;;;14.40;99.90;;;;;;5049535;28;20406;-55
2023/06/28 02:16:32;;;;;;;5.40;3.75;;;14.30;99.90;;;;;;5054173;28;20036;-55
2023/06/28 02:19:00;;;;;;;9.27;3.40;;;14.40;99.90;;;;;;5067685;28;20508;-52
2023/06/28 02:21:26;;;;;;;5.30;4.25;;;14.30;99.90;;;;;;5050244;28;20159;-52
2023/06/28 02:23:51;;;;;;;7.72;4.15;;;14.20;99.90;;;;;;5049460;28;20123;-52
2023/06/28 02:26:17;;;;;;;12.10;4.40;;;14.20;99.90;;;;;;5050617;28;20044;-52
2023/06/28 02:28:43;;;;;;;9.27;4.22;;;14.10;99.90;;;;;;5049628;28;20044;-53
2023/06/28 02:31:08;;;;;;;7.50;4.32;;;14.10;99.90;;;;;;5050563;28;20064;-53
2023/06/28 02:33:34;;;;;;;5.82;3.63;;;14.00;99.90;;;;;;5049323;28;20514;-53
2023/06/28 02:36:00;;;;;;;4.45;3.08;;;14.00;99.90;;;;;;5055687;28;20436;-52
2023/06/28 02:38:25;;;;;;;7.90;3.05;;;14.00;99.90;;;;;;5057594;28;20213;-54
2023/06/28 02:40:52;;;;;;;4.93;2.50;;;13.90;99.90;;;;;;5069174;28;20039;-55
2023/06/28 02:43:20;;;;;;;6.32;3.05;;;13.80;99.90;;;;;;5063510;28;20041;-53
2023/06/28 02:45:46;;;;;;;5.30;3.17;;;13.70;99.90;;;;;;5057534;28;20048;-52
2023/06/28 02:48:11;;;;;;;6.40;3.47;;;13.70;99.90;;;;;;5059563;28;20037;-52
2023/06/28 02:50:37;;;;;;;6.25;4.25;;;13.70;99.90;;;;;;5063630;28;20032;-52
2023/06/28 02:53:03;;;;;;;11.10;4.43;;;13.60;99.90;;;;;;5069484;28;20666;-52
2023/06/28 02:55:28;;;;;;;6.20;4.70;;;13.60;99.90;;;;;;5069140;28;20055;-55
2023/06/28 02:57:54;;;;;;;8.73;5.18;;;13.60;99.90;;;;;;5068821;28;20048;-52
2023/06/28 03:00:20;;;;;;;7.50;4.15;;;13.60;99.90;;;;;;5069668;28;20512;-56
2023/06/28 03:02:45;;;;;;;7.30;4.93;;;13.60;99.90;;;;;;5069594;28;20098;-52
2023/06/28 03:05:11;;;;;;;6.60;4.43;;;13.60;99.90;;;;;;5069200;28;20033;-52
2023/06/28 03:07:36;;;;;;;4.18;3.42;;;13.70;99.90;;;;;;5068664;28;20060;-53
2023/06/28 03:10:02;;;;;;;7.40;4.15;;;13.70;99.90;;;;;;5068827;28;20630;-55
2023/06/28 03:12:29;;;;;;;6.40;4.22;;;13.60;99.90;;;;;;5067470;28;20068;-54
2023/06/28 03:14:56;;;;;;;11.45;4.88;;;13.70;99.90;;;;;;5063610;28;20093;-52
2023/06/28 03:17:21;;;;;;;11.27;5.55;;;13.70;99.90;;;;;;5068766;28;20064;-53
2023/06/28 03:19:47;;;;;;;5.72;4.80;;;13.80;99.90;;;;;;5047434;28;20071;-52
2023/06/28 03:22:13;;;;;;;10.35;5.40;;;13.90;99.90;;;;;;5049471;28;20033;-55
2023/06/28 03:24:39;;;;;;;7.28;5.45;;;14.00;99.90;;;;;;5063268;28;20040;-53
2023/06/28 03:27:05;;;;;;;3.70;3.15;;;14.00;99.90;;;;;;5070287;28;20504;-56
2023/06/28 03:29:30;;;;;;;7.75;4.82;;;14.00;99.90;;;;;;5054911;28;20040;-56
2023/06/28 03:31:56;;;;;;;9.55;5.53;;;14.00;99.90;;;;;;5049123;28;20052;-51
2023/06/28 03:34:22;;;;;;;7.75;5.05;;;14.00;99.90;;;;;;5064396;28;20405;-52
2023/06/28 03:36:47;;;;;;;11.65;5.28;;;14.00;99.90;;;;;;5069376;28;20040;-54
2023/06/28 03:39:13;;;;;;;9.50;5.85;;;14.10;99.90;;;;;;5066850;28;20032;-55
2023/06/28 03:41:39;;;;;;;13.65;5.95;;;14.10;99.90;;;;;;5069801;28;20094;-52
2023/06/28 03:44:05;;;;;;;6.68;5.68;;;14.10;99.90;;;;;;5054547;28;20037;-53
2023/06/28 03:46:31;;;;;;;13.77;5.90;;;14.10;99.90;;;;;;5049008;28;20517;-52
2023/06/28 03:48:56;;;;;;;11.05;5.43;;;14.20;99.90;;;;;;5049900;28;20509;-52
2023/06/28 03:51:22;;;;;;;13.65;5.88;;;14.20;99.90;;;;;;5050785;28;20572;-53
2023/06/28 03:53:47;;;;;;;10.98;5.63;;;14.20;99.90;;;;;;5061083;28;20036;-55
2023/06/28 03:56:15;;;;;;;10.90;6.25;;;14.20;99.90;;;;;;5072783;28;20036;-52
2023/06/28 03:58:40;;;;;;;9.63;5.47;;;14.20;99.90;;;;;;5063785;28;20033;-53
2023/06/28 04:01:06;;;;;;;11.05;5.20;;;14.20;99.90;;;;;;5067776;28;20028;-54
2023/06/28 04:03:31;;;;;;;6.93;4.28;;;14.20;99.90;;;;;;5066297;28;20040;-53
2023/06/28 04:05:57;;;;;;;10.43;5.28;;;14.30;99.90;;;;;;5052645;28;20037;-51
2023/06/28 04:08:26;;;;;;;7.43;5.15;;;14.30;99.90;;;;;;5055654;28;20044;-52
2023/06/28 04:10:53;;;;;;;10.45;5.38;;;14.40;99.90;;;;;;5061672;28;20045;-54
2023/06/28 04:13:18;;;;;;;11.65;5.82;;;14.40;99.90;;;;;;5054094;28;20536;-51
2023/06/28 04:15:44;;;;;;;6.47;5.13;;;14.40;99.90;;;;;;5072247;28;20407;-52
2023/06/28 04:18:09;;;;;;;10.90;5.63;;;14.40;99.90;;;;;;5070416;28;20428;-51
2023/06/28 04:20:35;;;;;;;7.05;5.13;;;14.50;99.90;;;;;;5068732;28;20351;-53
2023/06/28 04:23:00;;;;;;;7.55;5.47;;;14.50;99.90;;;;;;5071673;28;20035;-52
2023/06/28 04:25:26;;;;;;;9.98;5.57;;;14.50;99.90;;;;;;5052847;28;20044;-53
2023/06/28 04:27:52;;;;;;;10.02;5.45;;;14.50;99.90;;;;;;5051424;28;20068;-55
2023/06/28 04:30:18;;;;;;;8.02;5.35;;;14.50;99.90;;;;;;5067102;28;20037;-52
2023/06/28 04:32:44;;;;;;;8.05;5.03;;;14.50;99.90;;;;;;5070815;28;20048;-54
2023/06/28 04:35:14;;;;;;;9.80;4.90;;;14.60;99.90;;;;;;5056033;28;20049;-52
2023/06/28 04:37:40;;;;;;;6.90;4.40;;;14.60;99.90;;;;;;5051393;28;20056;-51
2023/06/28 04:40:07;;;;;;;11.75;4.55;;;14.70;99.90;;;;;;5066292;28;20441;-52
2023/06/28 04:42:34;;;;;;;12.70;4.90;;;14.80;99.90;;;;;;5053546;28;20033;-55
2023/06/28 04:45:00;;;;;;;11.75;4.70;;;14.80;99.90;;;;;;5064105;28;20067;-52
2023/06/28 04:47:27;;;;;;;7.43;3.92;;;14.90;99.90;;;;;;5071753;28;20079;-52
2023/06/28 04:49:53;;;;;;;7.78;3.60;;;15.00;99.90;;;;;;5060886;28;20056;-53
2023/06/28 04:52:19;;;;;;;8.77;4.22;;;15.00;99.90;;;;;;5053198;28;20416;-54
2023/06/28 04:54:45;;;;;;;;;;;15.10;99.90;;;;;;5059547;28;20127;-54
2023/06/28 04:57:13;;;;;;;7.80;4.30;;;15.10;99.90;;;;;;5069739;28;20007;-55
2023/06/28 04:59:39;;;;;;;9.30;3.55;;;15.10;99.90;;;;;;5066336;28;20066;-51
2023/06/28 05:02:05;;;;;;;6.45;4.53;;;15.20;99.90;;;;;;5069817;28;20028;-51
2023/06/28 05:04:33;;;;;;;;;;;15.20;99.90;;;;;;5054255;28;20381;-52
2023/06/28 05:07:03;;;;;;;12.13;4.20;;;15.20;99.90;;;;;;5051885;28;20082;-55
2023/06/28 05:09:30;;;;;;;7.28;3.97;;;15.20;99.90;;;;;;5056211;28;20409;-54
2023/06/28 05:11:56;;;;;;;11.60;5.30;;;15.20;99.90;;;;;;5071438;28;20056;-54
2023/06/28 05:14:22;;;;;;;9.57;4.60;;;15.20;99.90;;;;;;5065055;28;20051;-52
2023/06/28 05:16:47;;;;;;;6.28;4.38;;;15.30;99.90;;;;;;5051991;28;20037;-52
2023/06/28 05:19:13;;;;;;;12.38;5.38;;;15.30;99.90;;;;;;5053483;28;20076;-52
2023/06/28 05:21:38;;;;;;;10.00;5.50;;;15.30;99.90;;;;;;5071240;28;20040;-53
2023/06/28 05:24:04;;;;;;;10.00;5.57;;;15.30;99.90;;;;;;5060014;28;20037;-55
2023/06/28 05:26:30;;;;;;;12.20;5.40;;;15.20;99.90;;;;;;5071344;28;20452;-55
2023/06/28 05:28:55;;;;;;;9.05;4.78;;;15.20;99.90;;;;;;5071269;28;20044;-52
2023/06/28 05:31:21;;;;;;;7.30;4.20;;;15.20;99.90;;;;;;5052188;28;20405;-52
2023/06/28 05:33:46;;;;;;;6.65;4.40;;;15.20;99.90;;;;;;5056600;28;20036;-53
2023/06/28 05:36:12;;;;;;;7.28;4.18;;;15.30;99.90;;;;;;5055737;28;20033;-56
2023/06/28 05:38:38;;;;;;;4.65;3.53;;;15.20;99.90;;;;;;5050807;28;20554;-51
2023/06/28 05:41:17;;;;;;;7.57;4.25;;;15.30;99.90;;;;;;5065491;28;20091;-53
2023/06/28 05:43:44;;;;;;;8.05;4.43;;;15.30;99.90;;;;;;5063694;28;20029;-56
2023/06/28 05:46:10;;;;;;;5.90;3.90;;;15.30;99.90;;;;;;5063309;28;20495;-51
2023/06/28 05:48:36;;;;;;;6.32;3.05;;;15.30;99.90;;;;;;5050154;28;20052;-51
2023/06/28 05:51:01;;;;;;;4.22;2.83;;;15.20;99.90;;;;;;5064095;28;20404;-51
2023/06/28 05:53:29;;;;;;;4.80;3.00;;;15.20;99.90;;;;;;5054383;28;20036;-57
2023/06/28 05:55:55;;;;;;;10.48;3.33;;;15.20;99.90;;;;;;5063308;28;20075;-52
2023/06/28 05:58:20;;;;;;;9.10;3.55;;;15.20;99.90;;;;;;5069397;28;20080;-53
2023/06/28 06:00:46;;;;;;;6.68;3.20;;;15.20;99.90;;;;;;5070294;28;20043;-51
2023/06/28 06:03:11;;;;;;;6.68;3.05;;;15.20;99.90;;;;;;5070105;28;20047;-54
2023/06/28 06:05:37;;;;;;;5.43;2.67;;;15.20;99.90;;;;;;5059951;28;20037;-54
2023/06/28 06:08:03;;;;;;;;;;;15.20;99.90;;;;;;5068665;28;20072;-54
2023/06/28 06:10:30;;;;;;;9.48;2.50;;;15.20;99.90;;;;;;5057289;28;19938;-55
2023/06/28 06:12:55;;;;;;;;;;;15.30;99.90;;;;;;5068953;28;20048;-54
2023/06/28 06:15:21;;;;;;;4.35;2.95;;;15.30;99.90;;;;;;5062946;28;19993;-52
2023/06/28 06:17:47;;;;;;;4.43;2.42;;;15.40;99.90;;;;;;5049973;28;20041;-52
2023/06/28 06:20:15;;;;;;;8.73;2.45;;;15.40;99.90;;;;;;5047419;28;20044;-53
2023/06/28 06:22:42;;;;;;;5.30;3.15;;;15.40;99.90;;;;;;5069312;28;20059;-51
2023/06/28 06:25:08;;;;;;;4.55;2.22;;;15.50;99.90;;;;;;5049528;28;20128;-51
2023/06/28 06:27:33;;;;;;;8.48;3.03;;;15.50;99.90;;;;;;5063881;28;20175;-52
2023/06/28 06:29:59;;;;;;;4.70;2.60;;;15.60;99.90;;;;;;5058499;28;20555;-51
2023/06/28 06:32:25;;;;;;;7.78;2.83;;;15.60;99.90;;;;;;5065513;28;20033;-52
2023/06/28 06:34:50;;;;;;;11.93;3.58;;;15.60;99.90;;;;;;5051556;28;20073;-52
2023/06/28 06:37:16;;;;;;;5.50;3.22;;;15.60;99.90;;;;;;5052168;28;20037;-55
2023/06/28 06:39:42;;;;;;;5.82;3.53;;;15.70;99.90;;;;;;5062175;28;20040;-54
2023/06/28 06:42:07;;;;;;;5.88;3.38;;;15.70;99.90;;;;;;5056630;28;20036;-56
2023/06/28 06:44:33;;;;;;;6.93;3.65;;;15.70;99.90;;;;;;5061547;28;20120;-52
2023/06/28 06:46:59;;;;;;;8.20;3.85;;;15.70;99.90;;;;;;5059218;28;20207;-52
2023/06/28 06:49:24;;;;;;;6.05;4.32;;;15.70;99.90;;;;;;5049431;28;20051;-54
2023/06/28 06:51:50;;;;;;;9.23;5.10;;;15.70;99.90;;;;;;5056546;28;20040;-56
2023/06/28 06:54:15;;;;;;;12.98;5.60;;;15.70;99.90;;;;;;5069066;28;20044;-51
2023/06/28 06:56:41;;;;;;;8.55;5.13;;;15.60;99.90;;;;;;5061910;28;20033;-54
2023/06/28 06:59:06;;;;;;;8.20;6.32;;;15.60;99.90;;;;;;5063411;28;20041;-56
2023/06/28 07:01:32;;;;;;;8.07;4.78;;;15.70;99.90;;;;;;5050369;28;20053;-56
2023/06/28 07:03:58;;;;;;;17.73;5.93;;;15.70;99.90;;;;;;5049798;28;20041;-53
2023/06/28 07:06:23;;;;;;;11.32;5.25;;;15.70;99.90;;;;;;5061132;28;20045;-55
2023/06/28 07:08:49;;;;;;;11.25;5.07;;;15.70;99.90;;;;;;5054140;28;20435;-56
2023/06/28 07:11:15;;;;;;;11.43;5.38;;;15.80;99.90;;;;;;5064547;28;20024;-56
2023/06/28 07:13:41;;;;;;;7.82;5.45;;;15.70;99.90;;;;;;5058259;28;20036;-53
2023/06/28 07:16:06;;;;;;;12.20;6.05;;;15.70;99.90;;;;;;5054764;28;20707;-52
2023/06/28 07:18:32;;;;;;;11.77;5.40;;;15.70;99.90;;;;;;5068248;28;20036;-56
2023/06/28 07:20:57;;;;;;;8.85;5.65;;;15.70;99.90;;;;;;5058079;28;20036;-54
2023/06/28 07:23:23;;;;;;;8.55;5.55;;;15.70;99.90;;;;;;5053148;28;20033;-55
2023/06/28 07:25:49;;;;;;;12.23;5.80;;;15.80;99.90;;;;;;5054680;28;20043;-53
2023/06/28 07:28:14;;;;;;;9.70;6.30;;;15.80;99.90;;;;;;5063814;28;20063;-53
2023/06/28 07:30:58;;;;;;;10.18;6.40;;;15.80;99.90;;;;;;5073955;28;20575;-52
2023/06/28 07:33:24;;;;;;;14.63;7.03;;;15.80;99.90;;;;;;5064275;28;20166;-52
2023/06/28 07:35:51;;;;;;;13.25;6.68;;;15.80;99.90;;;;;;5052979;28;20041;-52
2023/06/28 07:38:18;;;;;;;18.45;7.13;;;15.80;99.90;;;;;;5052859;28;20111;-56
2023/06/28 07:40:45;;;;;;;11.98;7.13;;;15.80;99.90;;;;;;5053921;28;20039;-56
2023/06/28 07:43:11;;;;;;;14.45;6.65;;;15.80;99.90;;;;;;5064228;28;20487;-57
2023/06/28 07:45:37;;;;;;;13.68;7.53;;;15.80;99.90;;;;;;5056029;28;20029;-58
2023/06/28 07:48:03;;;;;;;12.48;6.45;;;15.80;99.90;;;;;;5059627;28;20575;-53
2023/06/28 07:50:28;;;;;;;15.80;6.63;;;15.80;99.90;;;;;;5057214;28;20045;-54
2023/06/28 07:52:54;;;;;;;20.42;7.28;;;15.80;99.90;;;;;;5054367;28;20033;-58
2023/06/28 07:55:20;;;;;;;11.88;6.97;;;15.80;99.90;;;;;;5055688;28;20498;-54
2023/06/28 07:57:45;;;;;;;13.02;6.03;;;15.80;99.90;;;;;;5059205;28;20064;-53
2023/06/28 08:00:11;;;;;;;17.00;6.50;;;15.80;99.90;;;;;;5058087;28;20036;-57
2023/06/28 08:02:37;;;;;;;;;;;15.80;99.90;;;;;;5051257;28;20069;-56
2023/06/28 08:05:03;;;;;;;11.13;5.90;;;15.80;99.90;;;;;;5047293;28;19960;-58
2023/06/28 08:07:28;;;;;;;19.45;7.32;;;15.80;99.90;;;;;;5056149;28;20077;-58
2023/06/28 08:09:54;;;;;;;12.55;6.88;;;15.90;99.90;;;;;;5062468;28;20067;-54
2023/06/28 08:12:19;;;;;;;12.52;6.95;;;15.90;99.90;;;;;;5060160;28;20108;-54
2023/06/28 08:14:45;;;;;;;14.90;7.22;;;15.90;99.90;;;;;;5047301;28;20052;-56
2023/06/28 08:17:11;;;;;;;12.80;7.15;;;15.90;99.90;;;;;;5052314;28;20125;-60
2023/06/28 08:19:36;;;;;;;12.32;6.65;;;15.90;99.90;;;;;;5057405;28;20119;-53
2023/06/28 08:22:03;;;;;;;12.25;6.10;;;15.90;99.90;;;;;;5064312;28;20071;-53
2023/06/28 08:24:29;;;;;;;14.27;6.68;;;15.90;99.90;;;;;;5059018;28;20037;-53
2023/06/28 08:26:54;;;;;;;;;;;15.90;99.90;;;;;;5059735;28;20040;-53
2023/06/28 08:29:21;;;;;;;15.55;7.38;;;15.90;99.90;;;;;;5048382;28;19920;-56
2023/06/28 08:31:47;;;;;;;19.40;7.78;;;16.00;99.90;;;;;;5053511;28;20186;-57
2023/06/28 08:34:13;;;;;;;15.20;7.72;;;16.00;99.90;;;;;;5050271;28;20499;-56
2023/06/28 08:36:38;;;;;;;13.98;6.63;;;16.00;99.90;;;;;;5060444;28;20049;-56
2023/06/28 08:39:04;;;;;;;16.17;7.13;;;16.00;99.90;;;;;;5067125;28;20032;-55
2023/06/28 08:41:30;;;;;;;12.07;6.15;;;16.00;99.90;;;;;;5067117;28;20486;-60
2023/06/28 08:43:59;;;;;;;13.55;6.80;;;16.00;99.90;;;;;;5066411;28;20059;-53
2023/06/28 08:46:26;;;;;;;12.23;6.60;;;16.00;99.90;;;;;;5067722;28;20124;-56
2023/06/28 08:48:52;;;;;;;;;;;16.00;99.90;;;;;;5066848;28;20127;-53
2023/06/28 08:51:18;;;;;;;8.37;6.43;;;16.10;99.90;;;;;;5067361;28;19916;-59
2023/06/28 08:53:46;;;;;;;13.27;7.07;;;16.10;99.90;;;;;;5065819;28;20266;-56
2023/06/28 08:56:12;;;;;;;14.55;6.28;;;16.10;99.90;;;;;;5067296;28;20049;-55
2023/06/28 08:58:41;;;;;;;11.27;5.88;;;16.20;99.90;;;;;;5066677;28;20106;-56
2023/06/28 09:01:08;;;;;;;13.60;7.57;;;16.20;99.90;;;;;;5067112;28;20052;-58
2023/06/28 09:03:39;;;;;;;12.32;6.55;;;16.20;99.90;;;;;;5067218;28;20108;-54
2023/06/28 09:06:05;;;;;;;10.93;6.97;;;16.30;99.90;;;;;;5067748;28;20106;-53
2023/06/28 09:08:32;;;;;;;14.02;7.65;;;16.30;99.90;;;;;;5066395;28;20485;-57
2023/06/28 09:11:00;;;;;;;;;;;16.30;99.90;;;;;;5062228;28;20040;-55
2023/06/28 09:13:27;;;;;;;11.55;6.70;;;16.40;99.90;;;;;;5050692;28;19923;-56
2023/06/28 09:15:54;;;;;;;14.48;7.43;;;16.40;99.90;;;;;;5062237;28;20224;-56
2023/06/28 09:18:19;;;;;;;11.02;7.47;;;16.40;99.90;;;;;;5046527;28;20115;-60
2023/06/28 09:20:50;;;;;;;15.05;7.07;;;16.50;99.90;;;;;;5063524;28;20132;-53
2023/06/28 09:23:26;;;;;;;11.55;7.07;;;16.50;99.90;;;;;;5060850;28;20041;-53
2023/06/28 09:25:52;;;;;;;14.77;7.60;;;16.60;99.90;;;;;;5055744;28;20040;-57
2023/06/28 09:28:19;;;;;;;10.60;7.10;;;16.50;99.90;;;;;;5046366;28;20445;-55
2023/06/28 09:30:54;;;;;;;8.82;6.90;;;16.50;99.90;;;;;;5063219;28;20211;-52
2023/06/28 09:33:19;;;;;;;20.33;7.53;;;16.50;99.90;;;;;;5064117;28;20041;-59
2023/06/28 09:35:45;;;;;;;16.83;8.75;;;16.50;99.90;;;;;;5066968;28;20048;-57
2023/06/28 09:38:11;;;;;;;16.70;9.38;;;16.60;99.90;;;;;;5066579;28;20072;-53
2023/06/28 09:40:36;;;;;;;12.93;9.18;;;16.60;99.90;;;;;;5067222;28;20060;-53
2023/06/28 09:43:03;;;;;;;16.60;10.13;;;16.60;99.90;;;;;;5047153;28;20040;-56
2023/06/28 09:45:35;;;;;;;17.38;9.50;;;16.60;99.90;;;;;;5059295;28;20040;-57
2023/06/28 09:48:01;;;;;;;16.27;11.70;;;16.50;99.90;;;;;;5065588;28;20097;-53
2023/06/28 09:50:37;;;;;;;17.15;11.90;;;16.60;99.90;;;;;;5066632;28;20040;-54
2023/06/28 09:53:09;;;;;;;19.88;11.50;;;16.60;99.90;;;;;;5066155;28;20040;-53
2023/06/28 09:55:37;;;;;;;16.77;11.23;;;16.60;99.90;;;;;;5066334;28;20106;-56
2023/06/28 09:58:02;;;;;;;17.73;12.77;;;16.60;99.90;;;;;;5065132;28;20448;-58
2023/06/28 10:00:31;;;;;;;19.05;13.13;;;16.70;99.90;;;;;;5066158;28;20044;-56
2023/06/28 10:02:58;;;;;;;23.10;13.15;;;16.70;99.90;;;;;;5054046;28;20051;-53
2023/06/28 10:05:25;;;;;;;21.52;12.50;;;16.70;99.90;;;;;;5056783;28;20025;-56
2023/06/28 10:07:51;;;;;;;21.80;13.43;;;16.70;99.90;;;;;;5044101;28;20037;-57
2023/06/28 10:10:18;;;;;;;20.90;12.75;;;16.70;99.90;;;;;;5056295;28;20577;-56
2023/06/28 10:12:45;;;;;;;25.50;13.85;;;16.80;99.90;;;;;;5064222;28;20437;-54
2023/06/28 10:15:14;;;;;;;22.25;13.93;;;16.70;99.90;;;;;;5065206;28;20040;-53
2023/06/28 10:17:41;;;;;;;20.48;13.55;;;16.80;99.90;;;;;;5064431;28;20040;-58
2023/06/28 10:20:07;;;;;;;20.67;13.93;;;16.80;99.90;;;;;;5065876;28;20091;-54
2023/06/28 10:22:34;;;;;;;19.77;14.38;;;16.80;99.90;;;;;;5066180;28;20036;-53
2023/06/28 10:25:02;;;;;;;21.63;13.63;;;16.80;99.90;;;;;;5065398;28;20082;-53
2023/06/28 10:27:28;;;;;;;22.42;13.85;;;16.80;99.90;;;;;;5064759;28;20527;-56
2023/06/28 10:29:54;;;;;;;24.13;13.95;;;16.90;99.90;;;;;;5065896;28;20119;-55
2023/06/28 10:32:20;;;;;;;23.73;14.80;;;16.90;99.90;;;;;;5066003;28;20059;-54
2023/06/28 10:34:47;;;;;;;19.83;13.57;;;17.00;99.90;;;;;;5065440;28;20489;-56
2023/06/28 10:37:13;;;;;;;25.25;13.88;;;17.00;99.90;;;;;;5065595;28;20083;-58
2023/06/28 10:39:39;;;;;;;26.45;13.57;;;17.10;99.90;;;;;;5064244;28;20072;-56
2023/06/28 10:42:05;;;;;;;;;;;17.10;99.90;;;;;;5065891;28;20270;-52
2023/06/28 10:44:31;;;;;;;21.73;14.85;;;17.20;99.90;;;;;;5065011;28;19935;-57
2023/06/28 10:47:11;;;;;;;20.27;12.43;;;17.20;99.90;;;;;;5065771;28;20548;-56
2023/06/28 10:49:41;;;;;;;22.98;13.80;;;17.30;99.90;;;;;;5061786;28;20366;-57
2023/06/28 10:52:13;;;;;;;24.45;13.75;;;17.30;99.90;;;;;;5049616;28;20059;-55
2023/06/28 10:54:39;;;;;;;17.92;13.90;;;17.30;99.90;;;;;;5055761;28;20040;-53
2023/06/28 10:57:10;;;;;;;19.42;13.07;;;17.30;99.90;;;;;;5057905;28;20490;-54
2023/06/28 10:59:39;;;;;;;20.58;13.20;;;17.30;99.90;;;;;;5054371;28;20401;-57
2023/06/28 11:02:05;;;;;;;16.33;12.75;;;17.30;99.90;;;;;;5056352;28;20063;-56
2023/06/28 11:04:31;;;;;;;18.85;13.35;;;17.30;99.90;;;;;;5054269;28;20032;-57
2023/06/28 11:07:02;;;;;;;14.63;13.02;;;17.30;99.90;;;;;;5049804;28;20506;-55
2023/06/28 11:09:28;;;;;;;19.27;13.80;;;17.40;99.90;;;;;;5057043;28;20040;-59
2023/06/28 11:11:57;;;;;;;16.85;14.38;;;17.40;99.90;;;;;;5058321;28;20089;-59
2023/06/28 11:14:23;;;;;;;16.27;12.93;;;17.40;99.90;;;;;;5058005;28;20059;-56
2023/06/28 11:16:49;;;;;;;22.77;13.93;;;17.40;99.90;;;;;;5060043;28;20700;-57
2023/06/28 11:19:18;;;;;;;20.35;15.25;;;17.40;99.90;;;;;;5051792;28;20037;-58
2023/06/28 11:21:49;;;;;;;19.88;14.82;;;17.40;99.90;;;;;;5057824;28;20047;-57
2023/06/28 11:24:25;;;;;;;17.30;13.75;;;17.40;99.90;;;;;;5051321;28;20033;-58
2023/06/28 11:26:51;;;;;;;17.52;13.75;;;17.40;99.90;;;;;;5060451;28;20040;-58
2023/06/28 11:29:19;;;;;;;20.27;15.05;;;17.40;99.90;;;;;;5053967;28;20513;-55
2023/06/28 11:31:49;;;;;;;19.00;13.75;;;17.40;99.90;;;;;;5060641;28;20051;-58
2023/06/28 11:34:15;;;;;;;17.08;12.93;;;17.40;99.90;;;;;;5053260;28;20101;-59
2023/06/28 11:36:48;;;;;;;17.92;13.55;;;17.40;99.90;;;;;;5062125;28;20057;-57
2023/06/28 11:39:17;;;;;;;17.63;12.90;;;17.40;99.90;;;;;;5052783;28;20044;-59
2023/06/28 11:41:43;;;;;;;16.60;13.07;;;17.30;99.90;;;;;;5049944;28;20112;-59
2023/06/28 11:44:11;;;;;;;18.20;12.98;;;17.40;99.90;;;;;;5060936;28;20166;-56
2023/06/28 11:46:37;;;;;;;15.13;12.65;;;17.40;99.90;;;;;;5058540;28;20079;-54
2023/06/28 11:49:03;;;;;;;18.95;12.82;;;17.30;99.90;;;;;;5049558;28;20036;-59
2023/06/28 11:51:30;;;;;;;19.33;13.50;;;17.30;99.90;;;;;;5053422;28;20035;-58
2023/06/28 11:53:56;;;;;;;14.95;12.15;;;17.40;99.90;;;;;;5050294;28;20048;-54
2023/06/28 11:56:51;;;;;;;16.55;12.30;;;17.40;99.90;;;;;;5051647;28;20045;-59
2023/06/28 11:59:18;;;;;;;14.07;12.48;;;17.40;99.90;;;;;;5043890;28;20045;-58
2023/06/28 12:01:44;;;;;;;15.70;12.50;;;17.40;99.90;;;;;;5046902;28;20052;-59
2023/06/28 12:04:18;;;;;;;12.55;11.35;;;17.50;99.90;;;;;;5051107;28;20057;-57
2023/06/28 12:06:45;;;;;;;14.70;11.40;;;17.50;99.90;;;;;;5051273;28;20557;-57
2023/06/28 12:09:18;;;;;;;17.20;11.52;;;17.50;99.90;;;;;;5061194;28;20059;-60
2023/06/28 12:11:57;;;;;;;13.90;11.95;;;17.60;99.90;;;;;;5054126;28;20049;-58
2023/06/28 12:14:23;;;;;;;13.90;11.52;;;17.70;99.90;;;;;;5055160;28;20041;-58
2023/06/28 12:16:52;;;;;;;14.40;12.90;;;17.70;99.90;;;;;;5062397;28;20032;-59
2023/06/28 12:19:19;;;;;;;16.10;14.27;;;17.70;99.90;;;;;;5060751;28;20045;-58
2023/06/28 12:21:44;;;;;;;12.75;11.45;;;17.80;99.90;;;;;;5059323;28;20045;-57
2023/06/28 12:24:24;;;;;;;15.50;11.57;;;17.80;99.90;;;;;;5058666;28;20056;-57
2023/06/28 12:26:51;;;;;;;13.82;12.50;;;17.90;99.90;;;;;;5060880;28;21220;-58
2023/06/28 12:29:21;;;;;;;13.80;12.55;;;18.00;99.90;;;;;;5053168;28;20043;-59
2023/06/28 12:31:50;;;;;;;14.65;12.27;;;18.00;99.90;;;;;;5058210;28;20040;-56
2023/06/28 12:34:26;;;;;;;18.38;13.45;;;18.00;99.90;;;;;;5062917;28;20043;-57
2023/06/28 12:36:53;;;;;;;15.32;13.00;;;18.10;99.90;;;;;;5056766;28;20106;-56
2023/06/28 12:39:23;;;;;;;16.52;14.77;;;18.10;99.90;;;;;;5062568;28;20048;-58